Observation data for Tatum on 01/20/2019      Previous  Date  Next       Current Mesonet Observations  Soil Data  Daily Summary Page  Observations in Plain Language
KTAT 200600Z 22007KT M01/M06 A3027 RMK A01 T10061063  RH  065%=      5-min Rain = 0
KTAT 200605Z 22008KT M01/M06 A3027 RMK A01 T10091064  RH  066%=      5-min Rain = 0
KTAT 200610Z 22008KT M01/M06 A3027 RMK A01 T10111063  RH  068%=      5-min Rain = 0
KTAT 200615Z 22008KT M01/M06 A3027 RMK A01 T10141063  RH  069%=      5-min Rain = 0
KTAT 200620Z 22008KT M02/M06 A3027 RMK A01 T10151063  RH  070%=      5-min Rain = 0
KTAT 200625Z 22007KT M02/M06 A3027 RMK A01 T10161063  RH  070%=      5-min Rain = 0
KTAT 200630Z 22007KT M02/M06 A3028 RMK A01 T10181063  RH  071%=      5-min Rain = 0
KTAT 200635Z 23008KT M02/M06 A3027 RMK A01 T10181063  RH  072%=      5-min Rain = 0
KTAT 200640Z 23008KT M02/M06 A3028 RMK A01 T10181062  RH  072%=      5-min Rain = 0
KTAT 200645Z 22008KT M02/M06 A3028 RMK A01 T10181062  RH  072%=      5-min Rain = 0
KTAT 200650Z 22008KT M02/M06 A3028 RMK A01 T10191061  RH  073%=      5-min Rain = 0
KTAT 200655Z 22008KT M02/M06 A3028 RMK A01 T10181060  RH  073%=      5-min Rain = 0
KTAT 200700Z 22008KT M02/M06 A3027 RMK A01 T10161059  RH  073%=      5-min Rain = 0
KTAT 200705Z 21008KT M02/M06 A3027 RMK A01 T10151058  RH  072%=      5-min Rain = 0
KTAT 200710Z 22008KT M01/M06 A3027 RMK A01 T10131058  RH  072%=      5-min Rain = 0
KTAT 200715Z 22007KT M01/M06 A3027 RMK A01 T10121057  RH  072%=      5-min Rain = 0
KTAT 200720Z 22008KT M01/M06 A3027 RMK A01 T10121057  RH  072%=      5-min Rain = 0
KTAT 200725Z 21008KT M01/M06 A3027 RMK A01 T10131058  RH  072%=      5-min Rain = 0
KTAT 200730Z 21008KT M01/M06 A3026 RMK A01 T10131057  RH  072%=      5-min Rain = 0
KTAT 200735Z 21009KT M01/M06 A3026 RMK A01 T10121057  RH  072%=      5-min Rain = 0
KTAT 200740Z 21008KT M01/M06 A3026 RMK A01 T10101056  RH  071%=      5-min Rain = 0
KTAT 200745Z 21008KT M01/M06 A3026 RMK A01 T10091055  RH  071%=      5-min Rain = 0
KTAT 200750Z 22009KT M01/M05 A3025 RMK A01 T10061054  RH  070%=      5-min Rain = 0
KTAT 200755Z 21009KT M00/M05 A3025 RMK A01 T10031053  RH  069%=      5-min Rain = 0
KTAT 200800Z 21010KT 00/M05 A3025 RMK A01 T00011053  RH  067%=      5-min Rain = 0
KTAT 200805Z 21010KT 00/M05 A3024 RMK A01 T00031053  RH  066%=      5-min Rain = 0
KTAT 200810Z 21010KT 01/M05 A3024 RMK A01 T00051054  RH  065%=      5-min Rain = 0
KTAT 200815Z 21010KT 01/M05 A3024 RMK A01 T00071054  RH  064%=      5-min Rain = 0
KTAT 200820Z 21009KT 01/M05 A3024 RMK A01 T00081054  RH  064%=      5-min Rain = 0
KTAT 200825Z 21010KT 01/M05 A3024 RMK A01 T00091053  RH  063%=      5-min Rain = 0
KTAT 200830Z 21010KT 01/M05 A3024 RMK A01 T00111053  RH  063%=      5-min Rain = 0
KTAT 200835Z 20009KT 01/M05 A3024 RMK A01 T00101053  RH  063%=      5-min Rain = 0
KTAT 200840Z 20008KT 01/M05 A3024 RMK A01 T00081053  RH  064%=      5-min Rain = 0
KTAT 200845Z 21009KT 01/M05 A3024 RMK A01 T00061054  RH  064%=      5-min Rain = 0
KTAT 200850Z 21009KT 01/M05 A3024 RMK A01 T00051053  RH  065%=      5-min Rain = 0
KTAT 200855Z 20008KT 00/M05 A3024 RMK A01 T00041053  RH  066%=      5-min Rain = 0
KTAT 200900Z 20008KT 00/M05 A3024 RMK A01 T00031054  RH  066%=      5-min Rain = 0
KTAT 200905Z 21007KT 00/05 A3024 RMK A01 T00000-54  RH  067%=      5-min Rain = 0
KTAT 200910Z 22008KT M00/M05 A3024 RMK A01 T10011054  RH  068%=      5-min Rain = 0
KTAT 200915Z 21008KT M00/M05 A3024 RMK A01 T10021054  RH  068%=      5-min Rain = 0
KTAT 200920Z 21008KT M00/M05 A3024 RMK A01 T10021053  RH  069%=      5-min Rain = 0
KTAT 200925Z 21007KT M00/M05 A3024 RMK A01 T10031053  RH  069%=      5-min Rain = 0
KTAT 200930Z 22006KT M01/M05 A3024 RMK A01 T10051054  RH  070%=      5-min Rain = 0
KTAT 200935Z 22007KT M01/M06 A3024 RMK A01 T10081055  RH  071%=      5-min Rain = 0
KTAT 200940Z 21008KT M01/M06 A3024 RMK A01 T10101055  RH  072%=      5-min Rain = 0
KTAT 200945Z 21008KT M01/M06 A3024 RMK A01 T10121055  RH  073%=      5-min Rain = 0
KTAT 200950Z 21007KT M01/M06 A3024 RMK A01 T10131055  RH  073%=      5-min Rain = 0
KTAT 200955Z 21006KT M01/M06 A3024 RMK A01 T10141056  RH  073%=      5-min Rain = 0
KTAT 201000Z 21007KT M02/M06 A3024 RMK A01 T10171057  RH  074%=      5-min Rain = 0
KTAT 201005Z 21006KT M02/M06 A3024 RMK A01 T10181057  RH  075%=      5-min Rain = 0
KTAT 201010Z 21006KT M02/M06 A3023 RMK A01 T10191057  RH  075%=      5-min Rain = 0
KTAT 201015Z 21005KT M02/M06 A3023 RMK A01 T10211059  RH  075%=      5-min Rain = 0
KTAT 201020Z 20003KT M03/M06 A3023 RMK A01 T10251062  RH  076%=      5-min Rain = 0
KTAT 201025Z 20002KT M03/M06 A3023 RMK A01 T10271061  RH  077%=      5-min Rain = 0
KTAT 201030Z 21003KT M03/M06 A3023 RMK A01 T10271059  RH  079%=      5-min Rain = 0
KTAT 201035Z 20003KT M03/M06 A3023 RMK A01 T10251058  RH  078%=      5-min Rain = 0
KTAT 201040Z 11004KT M03/M07 A3023 RMK A01 T10311065  RH  077%=      5-min Rain = 0
KTAT 201045Z 18003KT M03/M06 A3023 RMK A01 T10301059  RH  080%=      5-min Rain = 0
KTAT 201050Z 20004KT M03/M06 A3023 RMK A01 T10261058  RH  079%=      5-min Rain = 0
KTAT 201055Z 15003KT M03/M06 A3023 RMK A01 T10251060  RH  077%=      5-min Rain = 0
KTAT 201100Z 13004KT M03/M06 A3023 RMK A01 T10321064  RH  079%=      5-min Rain = 0
KTAT 201105Z 19004KT M03/M06 A3023 RMK A01 T10321060  RH  081%=      5-min Rain = 0
KTAT 201110Z 19003KT M03/M06 A3023 RMK A01 T10291059  RH  080%=      5-min Rain = 0
KTAT 201115Z 16002KT M03/M06 A3023 RMK A01 T10311062  RH  079%=      5-min Rain = 0
KTAT 201120Z 21002KT M03/M06 A3023 RMK A01 T10341062  RH  081%=      5-min Rain = 0
KTAT 201125Z 21002KT M03/M06 A3022 RMK A01 T10341061  RH  082%=      5-min Rain = 0
KTAT 201130Z 22000KT M04/M07 A3022 RMK A01 T10381066  RH  081%=      5-min Rain = 0
KTAT 201135Z 00000KT M04/M06 A3022 RMK A01 T10381060  RH  085%=      5-min Rain = 0
KTAT 201140Z 17000KT M03/M05 A3022 RMK A01 T10321052  RH  087%=      5-min Rain = 0
KTAT 201145Z 17000KT M03/M05 A3022 RMK A01 T10311053  RH  085%=      5-min Rain = 0
KTAT 201150Z 02001KT M04/M06 A3022 RMK A01 T10351056  RH  085%=      5-min Rain = 0
KTAT 201155Z 10000KT M03/M05 A3022 RMK A01 T10331052  RH  087%=      5-min Rain = 0
KTAT 201200Z 00000KT M03/M05 A3022 RMK A01 T10321052  RH  086%=      5-min Rain = 0
KTAT 201205Z 25002KT M03/M05 A3022 RMK A01 T10311054  RH  085%=      5-min Rain = 0
KTAT 201210Z 13001KT M03/M06 A3022 RMK A01 T10331058  RH  083%=      5-min Rain = 0
KTAT 201215Z 19002KT M04/M06 A3022 RMK A01 T10371060  RH  084%=      5-min Rain = 0
KTAT 201220Z 22003KT M04/M06 A3022 RMK A01 T10391061  RH  085%=      5-min Rain = 0
KTAT 201225Z 21003KT M04/M07 A3021 RMK A01 T10411065  RH  084%=      5-min Rain = 0
KTAT 201230Z 19003KT M05/M07 A3022 RMK A01 T10461069  RH  084%=      5-min Rain = 0
KTAT 201235Z 16003KT M05/M07 A3021 RMK A01 T10481069  RH  085%=      5-min Rain = 0
KTAT 201240Z 14004KT M05/M07 A3021 RMK A01 T10461069  RH  084%=      5-min Rain = 0
KTAT 201245Z 15005KT M05/M07 A3021 RMK A01 T10481071  RH  084%=      5-min Rain = 0
KTAT 201250Z 18004KT M05/M07 A3021 RMK A01 T10481070  RH  085%=      5-min Rain = 0
KTAT 201255Z 17003KT M05/M07 A3022 RMK A01 T10471068  RH  085%=      5-min Rain = 0
KTAT 201300Z 19004KT M05/M07 A3021 RMK A01 T10451068  RH  084%=      5-min Rain = 0
KTAT 201305Z 20003KT M04/M07 A3021 RMK A01 T10431066  RH  084%=      5-min Rain = 0
KTAT 201310Z 19003KT M04/M06 A3021 RMK A01 T10401064  RH  084%=      5-min Rain = 0
KTAT 201315Z 18003KT M04/M07 A3022 RMK A01 T10411067  RH  082%=      5-min Rain = 0
KTAT 201320Z 16003KT M05/M07 A3022 RMK A01 T10451069  RH  083%=      5-min Rain = 0
KTAT 201325Z 17004KT M05/M07 A3022 RMK A01 T10461070  RH  083%=      5-min Rain = 0
KTAT 201330Z 17003KT M05/M07 A3022 RMK A01 T10461070  RH  083%=      5-min Rain = 0
KTAT 201335Z 18002KT M05/M07 A3022 RMK A01 T10481071  RH  083%=      5-min Rain = 0
KTAT 201340Z 07001KT M05/M07 A3022 RMK A01 T10501074  RH  083%=      5-min Rain = 0
KTAT 201345Z 14001KT M05/M07 A3022 RMK A01 T10521072  RH  086%=      5-min Rain = 0
KTAT 201350Z 14001KT M05/M07 A3022 RMK A01 T10491069  RH  086%=      5-min Rain = 0
KTAT 201355Z 15001KT M05/M07 A3023 RMK A01 T10491069  RH  085%=      5-min Rain = 0
KTAT 201400Z 15001KT M05/M07 A3023 RMK A01 T10471067  RH  086%=      5-min Rain = 0
KTAT 201405Z 16004KT M04/M06 A3023 RMK A01 T10431061  RH  087%=      5-min Rain = 0
KTAT 201410Z 18004KT M04/M06 A3023 RMK A01 T10441063  RH  087%=      5-min Rain = 0
KTAT 201415Z 19004KT M04/M06 A3023 RMK A01 T10431063  RH  086%=      5-min Rain = 0
KTAT 201420Z 18005KT M04/M06 A3023 RMK A01 T10361056  RH  086%=      5-min Rain = 0
KTAT 201425Z 18007KT M03/M05 A3023 RMK A01 T10281051  RH  085%=      5-min Rain = 0
KTAT 201430Z 19006KT M02/M05 A3023 RMK A01 T10201047  RH  083%=      5-min Rain = 0
KTAT 201435Z 20005KT M02/M05 A3023 RMK A01 T10151045  RH  080%=      5-min Rain = 0
KTAT 201440Z 19004KT M01/M04 A3023 RMK A01 T10111043  RH  079%=      5-min Rain = 0
KTAT 201445Z 18005KT M01/M04 A3023 RMK A01 T10091042  RH  079%=      5-min Rain = 0
KTAT 201450Z 17006KT M01/M04 A3023 RMK A01 T10061037  RH  080%=      5-min Rain = 0
KTAT 201455Z 19005KT M00/M04 A3023 RMK A01 T10021038  RH  077%=      5-min Rain = 0
KTAT 201500Z 21004KT 01/M04 A3023 RMK A01 T00071036  RH  074%=      5-min Rain = 0
KTAT 201505Z 20004KT 02/M04 A3023 RMK A01 T00151036  RH  069%=      5-min Rain = 0
KTAT 201510Z 17004KT 02/M03 A3023 RMK A01 T00211033  RH  068%=      5-min Rain = 0
KTAT 201515Z 18004KT 03/M03 A3023 RMK A01 T00281032  RH  065%=      5-min Rain = 0
KTAT 201520Z 20004KT 03/M04 A3023 RMK A01 T00301038  RH  061%=      5-min Rain = 0
KTAT 201525Z 19004KT 03/M04 A3023 RMK A01 T00331038  RH  060%=      5-min Rain = 0
KTAT 201530Z 19005KT 04/M04 A3023 RMK A01 T00391036  RH  058%=      5-min Rain = 0
KTAT 201535Z 20005KT 04/M04 A3023 RMK A01 T00421040  RH  055%=      5-min Rain = 0
KTAT 201540Z 20006KT 05/M05 A3022 RMK A01 T00461047  RH  051%=      5-min Rain = 0
KTAT 201545Z 20006KT 05/M05 A3022 RMK A01 T00501047  RH  050%=      5-min Rain = 0
KTAT 201550Z 20006KT 05/M05 A3022 RMK A01 T00541050  RH  047%=      5-min Rain = 0
KTAT 201555Z 20006KT 06/M05 A3022 RMK A01 T00571051  RH  046%=      5-min Rain = 0
KTAT 201600Z 20006KT 06/M05 A3022 RMK A01 T00631050  RH  044%=      5-min Rain = 0
KTAT 201605Z 20006KT 07/M05 A3023 RMK A01 T00681048  RH  044%=      5-min Rain = 0
KTAT 201610Z 20006KT 07/M05 A3023 RMK A01 T00671050  RH  043%=      5-min Rain = 0
KTAT 201615Z 20006KT 07/M05 A3023 RMK A01 T00721049  RH  042%=      5-min Rain = 0
KTAT 201620Z 22006KT 08/M05 A3023 RMK A01 T00781050  RH  040%=      5-min Rain = 0
KTAT 201625Z 21007KT 09/M06 A3024 RMK A01 T00861056  RH  036%=      5-min Rain = 0
KTAT 201630Z 21007KT 09/M06 A3023 RMK A01 T00911058  RH  034%=      5-min Rain = 0
KTAT 201635Z 22008KT 10/M06 A3023 RMK A01 T00961059  RH  033%=      5-min Rain = 0
KTAT 201640Z 22008KT 10/M06 A3024 RMK A01 T00981062  RH  032%=      5-min Rain = 0
KTAT 201645Z 23008KT 10/M06 A3024 RMK A01 T01001061  RH  032%=      5-min Rain = 0
KTAT 201650Z 23008KT 10/M06 A3023 RMK A01 T01021062  RH  031%=      5-min Rain = 0
KTAT 201655Z 22007KT 11/M06 A3023 RMK A01 T01071060  RH  030%=      5-min Rain = 0
KTAT 201700Z 22008KT 11/M06 A3022 RMK A01 T01111060  RH  029%=      5-min Rain = 0
KTAT 201705Z 21008KT 11/M06 A3022 RMK A01 T01141060  RH  029%=      5-min Rain = 0
KTAT 201710Z 22008KT 12/M06 A3022 RMK A01 T01191061  RH  028%=      5-min Rain = 0
KTAT 201715Z 22008KT 12/M06 A3022 RMK A01 T01191063  RH  027%=      5-min Rain = 0
KTAT 201720Z 23008KT 12/M07 A3022 RMK A01 T01201065  RH  027%=      5-min Rain = 0
KTAT 201725Z 23008KT 12/M07 A3022 RMK A01 T01231066  RH  026%=      5-min Rain = 0
KTAT 201730Z 23009KT 13/M07 A3022 RMK A01 T01291066  RH  025%=      5-min Rain = 0
KTAT 201735Z 24009KT 13/M07 A3022 RMK A01 T01301071  RH  024%=      5-min Rain = 0
KTAT 201740Z 24009KT 13/M07 A3021 RMK A01 T01341071  RH  023%=      5-min Rain = 0
KTAT 201745Z 23009KT 14/M08 A3021 RMK A01 T01391075  RH  022%=      5-min Rain = 0
KTAT 201750Z 23009KT 14/M08 A3021 RMK A01 T01401077  RH  021%=      5-min Rain = 0
KTAT 201755Z 24009KT 14/M08 A3021 RMK A01 T01431079  RH  021%=      5-min Rain = 0
KTAT 201800Z 22009KT 15/M08 A3021 RMK A01 T01471079  RH  020%=      5-min Rain = 0
KTAT 201805Z 23009KT 15/M08 A3021 RMK A01 T01481081  RH  020%=      5-min Rain = 0
KTAT 201810Z 25009KT 15/M08 A302 RMK A01 T01461082  RH  020%=      5-min Rain = 0
KTAT 201815Z 23008G13KT 15/M08 A302 RMK A01 T01491080  RH  020%=      5-min Rain = 0
KTAT 201820Z 23007KT 15/M08 A302 RMK A01 T01501083  RH  019%=      5-min Rain = 0
KTAT 201825Z 21009KT 16/M08 A302 RMK A01 T01551083  RH  019%=      5-min Rain = 0
KTAT 201830Z 23007KT 16/M08 A3019 RMK A01 T01561083  RH  018%=      5-min Rain = 0
KTAT 201835Z 23008KT 16/M08 A3019 RMK A01 T01551084  RH  018%=      5-min Rain = 0
KTAT 201840Z 22007KT 16/M08 A3018 RMK A01 T01571081  RH  019%=      5-min Rain = 0
KTAT 201845Z 22008KT 16/M09 A3018 RMK A01 T01621087  RH  017%=      5-min Rain = 0
KTAT 201850Z 22009KT 17/M09 A3017 RMK A01 T01651086  RH  017%=      5-min Rain = 0
KTAT 201855Z 22010KT 17/M09 A3017 RMK A01 T01671089  RH  016%=      5-min Rain = 0
KTAT 201900Z 22009KT 16/M09 A3016 RMK A01 T01641089  RH  017%=      5-min Rain = 0
KTAT 201905Z 21010G15KT 17/M09 A3016 RMK A01 T01651089  RH  017%=      5-min Rain = 0
KTAT 201910Z 22011KT 17/M09 A3016 RMK A01 T01701087  RH  016%=      5-min Rain = 0
KTAT 201915Z 22010KT 17/M09 A3015 RMK A01 T01711087  RH  016%=      5-min Rain = 0
KTAT 201920Z 23011KT 17/M09 A3015 RMK A01 T01701089  RH  016%=      5-min Rain = 0
KTAT 201925Z 23011G18KT 17/M09 A3015 RMK A01 T01701090  RH  016%=      5-min Rain = 0
KTAT 201930Z 22010G15KT 17/M09 A3014 RMK A01 T01721090  RH  016%=      5-min Rain = 0
KTAT 201935Z 25011KT 17/M09 A3014 RMK A01 T01721093  RH  015%=      5-min Rain = 0
KTAT 201940Z 24010KT 17/M09 A3014 RMK A01 T01701094  RH  015%=      5-min Rain = 0
KTAT 201945Z 22011G16KT 17/M09 A3013 RMK A01 T01741092  RH  015%=      5-min Rain = 0
KTAT 201950Z 23010KT 17/M09 A3013 RMK A01 T01731093  RH  015%=      5-min Rain = 0
KTAT 201955Z 23009KT 18/M09 A3013 RMK A01 T01751092  RH  015%=      5-min Rain = 0
KTAT 202000Z 22010G15KT 17/M09 A3012 RMK A01 T01741091  RH  015%=      5-min Rain = 0
KTAT 202005Z 23010KT 18/M09 A3012 RMK A01 T01771090  RH  015%=      5-min Rain = 0
KTAT 202010Z 24009G14KT 18/M09 A3012 RMK A01 T01751094  RH  015%=      5-min Rain = 0
KTAT 202015Z 24011KT 18/M09 A3012 RMK A01 T01781091  RH  015%=      5-min Rain = 0
KTAT 202020Z 23010G17KT 18/M09 A3011 RMK A01 T01821090  RH  015%=      5-min Rain = 0
KTAT 202025Z 23011KT 18/M09 A3011 RMK A01 T01821090  RH  015%=      5-min Rain = 0
KTAT 202030Z 24009G14KT 18/M09 A301 RMK A01 T01821090  RH  015%=      5-min Rain = 0
KTAT 202035Z 23011KT 18/M09 A301 RMK A01 T01831089  RH  015%=      5-min Rain = 0
KTAT 202040Z 24011KT 18/M09 A301 RMK A01 T01821088  RH  015%=      5-min Rain = 0
KTAT 202045Z 23011KT 19/M09 A3009 RMK A01 T01871086  RH  015%=      5-min Rain = 0
KTAT 202050Z 24010G15KT 18/M09 A3009 RMK A01 T01841087  RH  015%=      5-min Rain = 0
KTAT 202055Z 24009KT 19/M09 A3009 RMK A01 T01851087  RH  015%=      5-min Rain = 0
KTAT 202100Z 23009KT 19/M09 A3009 RMK A01 T01891086  RH  015%=      5-min Rain = 0
KTAT 202105Z 23009G14KT 19/M09 A3009 RMK A01 T01891086  RH  015%=      5-min Rain = 0
KTAT 202110Z 23010KT 19/M09 A3009 RMK A01 T01891085  RH  015%=      5-min Rain = 0
KTAT 202115Z 23011KT 19/M08 A3009 RMK A01 T01921083  RH  015%=      5-min Rain = 0
KTAT 202120Z 24011G16KT 19/M08 A3008 RMK A01 T01941082  RH  015%=      5-min Rain = 0
KTAT 202125Z 24008KT 19/M08 A3008 RMK A01 T01941083  RH  015%=      5-min Rain = 0
KTAT 202130Z 23011KT 20/M08 A3008 RMK A01 T01971081  RH  014%=      5-min Rain = 0
KTAT 202135Z 25010G15KT 19/M08 A3008 RMK A01 T01941083  RH  015%=      5-min Rain = 0
KTAT 202140Z 25009G14KT 19/M08 A3008 RMK A01 T01911084  RH  015%=      5-min Rain = 0
KTAT 202145Z 24009G14KT 19/M08 A3008 RMK A01 T01931082  RH  015%=      5-min Rain = 0
KTAT 202150Z 24010KT 19/M08 A3008 RMK A01 T01941083  RH  015%=      5-min Rain = 0
KTAT 202155Z 25009G14KT 19/M08 A3008 RMK A01 T01911083  RH  015%=      5-min Rain = 0
KTAT 202200Z 23009KT 19/M08 A3008 RMK A01 T01931081  RH  015%=      5-min Rain = 0
KTAT 202205Z 23009KT 20/M08 A3008 RMK A01 T01961081  RH  015%=      5-min Rain = 0
KTAT 202210Z 23009KT 19/M08 A3008 RMK A01 T01921083  RH  015%=      5-min Rain = 0
KTAT 202215Z 23010KT 19/M08 A3008 RMK A01 T01901084  RH  015%=      5-min Rain = 0
KTAT 202220Z 22010KT 19/M09 A3008 RMK A01 T01881085  RH  015%=      5-min Rain = 0
KTAT 202225Z 22010KT 19/M08 A3008 RMK A01 T01881084  RH  015%=      5-min Rain = 0
KTAT 202230Z 22010KT 19/M08 A3008 RMK A01 T01871084  RH  015%=      5-min Rain = 0
KTAT 202235Z 21009KT 18/M08 A3008 RMK A01 T01831084  RH  015%=      5-min Rain = 0
KTAT 202240Z 22009KT 18/M08 A3008 RMK A01 T01801084  RH  016%=      5-min Rain = 0
KTAT 202245Z 22009KT 18/M09 A3008 RMK A01 T01761085  RH  016%=      5-min Rain = 0
KTAT 202250Z 22009KT 17/M09 A3008 RMK A01 T01741085  RH  016%=      5-min Rain = 0
KTAT 202255Z 21008KT 17/M09 A3008 RMK A01 T01721085  RH  016%=      5-min Rain = 0
KTAT 202300Z 21007KT 17/M08 A3008 RMK A01 T01701084  RH  017%=      5-min Rain = 0
KTAT 202305Z 21007KT 17/M08 A3008 RMK A01 T01681083  RH  017%=      5-min Rain = 0
KTAT 202310Z 20006KT 17/M08 A3008 RMK A01 T01661077  RH  018%=      5-min Rain = 0
KTAT 202315Z 20007KT 16/M07 A3008 RMK A01 T01631074  RH  019%=      5-min Rain = 0
KTAT 202320Z 20007KT 16/M07 A3007 RMK A01 T01601071  RH  020%=      5-min Rain = 0
KTAT 202325Z 20006KT 16/M07 A3007 RMK A01 T01561069  RH  021%=      5-min Rain = 0
KTAT 202330Z 20006KT 15/M07 A3007 RMK A01 T01511066  RH  022%=      5-min Rain = 0
KTAT 202335Z 20006KT 15/M07 A3007 RMK A01 T01451065  RH  023%=      5-min Rain = 0
KTAT 202340Z 19007KT 14/M06 A3007 RMK A01 T01371063  RH  025%=      5-min Rain = 0
KTAT 202345Z 20009KT 13/M07 A3007 RMK A01 T01311065  RH  025%=      5-min Rain = 0
KTAT 202350Z 20009KT 13/M07 A3007 RMK A01 T01291068  RH  025%=      5-min Rain = 0
KTAT 202355Z 20009KT 13/M07 A3007 RMK A01 T01251070  RH  025%=      5-min Rain = 0
KTAT 210000Z 19009KT 12/M07 A3007 RMK A01 T01191070  RH  026%=      5-min Rain = 0
KTAT 210005Z 20009KT 11/M07 A3007 RMK A01 T01121070  RH  027%=      5-min Rain = 0
KTAT 210010Z 20009KT 11/M07 A3007 RMK A01 T01061071  RH  028%=      5-min Rain = 0
KTAT 210015Z 20009KT 10/M07 A3007 RMK A01 T00991071  RH  030%=      5-min Rain = 0
KTAT 210020Z 19009KT 09/M07 A3006 RMK A01 T00911072  RH  031%=      5-min Rain = 0
KTAT 210025Z 19008KT 08/M07 A3006 RMK A01 T00831072  RH  033%=      5-min Rain = 0
KTAT 210030Z 19008KT 08/M07 A3006 RMK A01 T00761072  RH  034%=      5-min Rain = 0
KTAT 210035Z 19008KT 07/M07 A3006 RMK A01 T00711072  RH  035%=      5-min Rain = 0
KTAT 210040Z 19009KT 07/M07 A3006 RMK A01 T00711071  RH  036%=      5-min Rain = 0
KTAT 210045Z 19009KT 07/M07 A3006 RMK A01 T00711071  RH  036%=      5-min Rain = 0
KTAT 210050Z 20009KT 07/M07 A3006 RMK A01 T00721071  RH  035%=      5-min Rain = 0
KTAT 210055Z 20009KT 07/M07 A3007 RMK A01 T00741071  RH  035%=      5-min Rain = 0
KTAT 210100Z 20009KT 08/M07 A3006 RMK A01 T00751071  RH  035%=      5-min Rain = 0
KTAT 210105Z 20009KT 08/M07 A3006 RMK A01 T00781072  RH  034%=      5-min Rain = 0
KTAT 210110Z 20009KT 08/M07 A3006 RMK A01 T00801072  RH  033%=      5-min Rain = 0
KTAT 210115Z 19008KT 08/M07 A3006 RMK A01 T00771071  RH  034%=      5-min Rain = 0
KTAT 210120Z 19008KT 07/M07 A3006 RMK A01 T00711071  RH  036%=      5-min Rain = 0
KTAT 210125Z 20008KT 07/M07 A3006 RMK A01 T00681071  RH  036%=      5-min Rain = 0
KTAT 210130Z 20009KT 07/M07 A3006 RMK A01 T00681072  RH  036%=      5-min Rain = 0
KTAT 210135Z 20009KT 07/M07 A3005 RMK A01 T00681072  RH  036%=      5-min Rain = 0
KTAT 210140Z 20009KT 07/M07 A3005 RMK A01 T00691073  RH  036%=      5-min Rain = 0
KTAT 210145Z 20009KT 07/M07 A3005 RMK A01 T00681073  RH  036%=      5-min Rain = 0
KTAT 210150Z 20008KT 07/M07 A3005 RMK A01 T00671073  RH  036%=      5-min Rain = 0
KTAT 210155Z 20008KT 07/M07 A3005 RMK A01 T00671073  RH  036%=      5-min Rain = 0
KTAT 210200Z 19007KT 06/M07 A3005 RMK A01 T00641072  RH  037%=      5-min Rain = 0
KTAT 210205Z 20008KT 06/M07 A3004 RMK A01 T00611071  RH  038%=      5-min Rain = 0
KTAT 210210Z 19008KT 06/M07 A3004 RMK A01 T00611071  RH  038%=      5-min Rain = 0
KTAT 210215Z 19008KT 06/M07 A3004 RMK A01 T00621072  RH  037%=      5-min Rain = 0
KTAT 210220Z 19009KT 06/M07 A3004 RMK A01 T00641074  RH  036%=      5-min Rain = 0
KTAT 210225Z 19010KT 07/M08 A3003 RMK A01 T00691075  RH  035%=      5-min Rain = 0
KTAT 210230Z 19010KT 07/M08 A3003 RMK A01 T00701075  RH  035%=      5-min Rain = 0
KTAT 210235Z 19009KT 07/M08 A3003 RMK A01 T00681075  RH  035%=      5-min Rain = 0
KTAT 210240Z 19009KT 06/M07 A3003 RMK A01 T00631074  RH  037%=      5-min Rain = 0
KTAT 210245Z 19009KT 06/M07 A3002 RMK A01 T00601072  RH  038%=      5-min Rain = 0
KTAT 210250Z 19008KT 06/M07 A3002 RMK A01 T00611072  RH  038%=      5-min Rain = 0
KTAT 210255Z 19008KT 06/M07 A3002 RMK A01 T00621073  RH  037%=      5-min Rain = 0
KTAT 210300Z 19007KT 06/M07 A3002 RMK A01 T00601072  RH  038%=      5-min Rain = 0
KTAT 210305Z 19007KT 06/M07 A3002 RMK A01 T00551072  RH  039%=      5-min Rain = 0
KTAT 210310Z 19006KT 05/M07 A3002 RMK A01 T00511073  RH  040%=      5-min Rain = 0
KTAT 210315Z 20008KT 05/M07 A3003 RMK A01 T00451072  RH  042%=      5-min Rain = 0
KTAT 210320Z 20008KT 04/M07 A3003 RMK A01 T00421069  RH  044%=      5-min Rain = 0
KTAT 210325Z 20008KT 04/M07 A3003 RMK A01 T00421068  RH  044%=      5-min Rain = 0
KTAT 210330Z 20008KT 04/M07 A3003 RMK A01 T00421069  RH  044%=      5-min Rain = 0
KTAT 210335Z 20009KT 04/M07 A3003 RMK A01 T00421068  RH  044%=      5-min Rain = 0
KTAT 210340Z 20009KT 05/M07 A3003 RMK A01 T00461068  RH  043%=      5-min Rain = 0
KTAT 210345Z 20010KT 05/M07 A3003 RMK A01 T00491068  RH  042%=      5-min Rain = 0
KTAT 210350Z 20009KT 05/M07 A3003 RMK A01 T00531069  RH  041%=      5-min Rain = 0
KTAT 210355Z 20009KT 05/M07 A3003 RMK A01 T00521069  RH  041%=      5-min Rain = 0
KTAT 210400Z 21009KT 05/M07 A3003 RMK A01 T00491069  RH  042%=      5-min Rain = 0
KTAT 210405Z 21009KT 04/M07 A3003 RMK A01 T00441069  RH  044%=      5-min Rain = 0
KTAT 210410Z 21009KT 04/M07 A3003 RMK A01 T00411069  RH  045%=      5-min Rain = 0
KTAT 210415Z 21008KT 04/M07 A3003 RMK A01 T00381069  RH  045%=      5-min Rain = 0
KTAT 210420Z 21008KT 04/M07 A3003 RMK A01 T00371069  RH  046%=      5-min Rain = 0
KTAT 210425Z 21007KT 03/M07 A3003 RMK A01 T00331069  RH  047%=      5-min Rain = 0
KTAT 210430Z 21007KT 03/M07 A3003 RMK A01 T00291070  RH  048%=      5-min Rain = 0
KTAT 210435Z 21007KT 03/M07 A3003 RMK A01 T00251070  RH  049%=      5-min Rain = 0
KTAT 210440Z 21007KT 02/M07 A3003 RMK A01 T00201070  RH  051%=      5-min Rain = 0
KTAT 210445Z 21007KT 02/M07 A3002 RMK A01 T00161070  RH  053%=      5-min Rain = 0
KTAT 210450Z 21008KT 02/M07 A3002 RMK A01 T00151069  RH  054%=      5-min Rain = 0
KTAT 210455Z 21008KT 01/M07 A3002 RMK A01 T00121069  RH  055%=      5-min Rain = 0
KTAT 210500Z 21008KT 01/M07 A3002 RMK A01 T00121068  RH  055%=      5-min Rain = 0
KTAT 210505Z 21008KT 01/M07 A3002 RMK A01 T00111068  RH  056%=      5-min Rain = 0
KTAT 210510Z 21009KT 01/M07 A3002 RMK A01 T00101068  RH  056%=      5-min Rain = 0
KTAT 210515Z 20009KT 01/M07 A3002 RMK A01 T00111067  RH  056%=      5-min Rain = 0
KTAT 210520Z 20009KT 01/M07 A3002 RMK A01 T00111066  RH  057%=      5-min Rain = 0
KTAT 210525Z 20008KT 01/M07 A3002 RMK A01 T00131066  RH  056%=      5-min Rain = 0
KTAT 210530Z 20007KT 02/M07 A3002 RMK A01 T00151067  RH  054%=      5-min Rain = 0
KTAT 210535Z 20006KT 01/M07 A3002 RMK A01 T00141068  RH  054%=      5-min Rain = 0
KTAT 210540Z 21006KT 01/M07 A3002 RMK A01 T00121068  RH  055%=      5-min Rain = 0
KTAT 210545Z 23007KT 01/M07 A3002 RMK A01 T00121067  RH  056%=      5-min Rain = 0
KTAT 210550Z 23008KT 01/M07 A3002 RMK A01 T00081067  RH  057%=      5-min Rain = 0
KTAT 210555Z 23009KT 01/M07 A3002 RMK A01 T00051066  RH  059%=      5-min Rain = 0

Page generated in 0.0148 seconds.